Flight Track Log - Related Links

Times and Time Zones

All times are in EDT time to prevent confusion due to time zone crossing. See the UAL3821 flight status page for this flight to view local times or setup timezone preferences in your user account.

Time Position Orientation Groundspeed Altitude Reporting Facility
EDT Latitude Longitude Course Direction KTS MPH feet Rate Location/Type
Wed 10:44:39 AM 40.6519 -74.1792 316° Northwest 177 204 1,300  Level New York Center
Wed 10:45:17 AM 40.6333 -74.2000 220° Southwest 203 234 1,900 1,776 Climbing New York TRACON
Wed 10:46:17 AM 40.6667 -74.2667 303° West 249 287 4,200 2,400 Climbing New York TRACON
Wed 10:47:00 AM 40.8971 -74.4157 319° Northwest  Level FlightAware Approximate
Wed 10:47:17 AM 40.7333 -74.3167 330° Northwest 249 287 6,700  Level New York TRACON
Wed 10:48:00 AM 40.9697 -74.4987 319° Northwest  Level FlightAware Approximate
Wed 10:48:17 AM 40.7833 -74.3667 323° Northwest 259 298 8,700  Level New York TRACON
Wed 10:49:00 AM 41.0402 -74.5849 316° Northwest  Level FlightAware Approximate
Wed 10:49:17 AM 40.8500 -74.4333 323° Northwest 280 322 10,300  Level New York TRACON
Wed 10:49:41 AM 40.8750 -74.4511 332° Northwest 304 350 10,500 1,000 Climbing New York Center
Wed 10:50:00 AM 41.1090 -74.6735 316° Northwest  Level FlightAware Approximate
Wed 10:50:41 AM 40.9478 -74.5211 324° Northwest 347 399 11,700  Level New York Center
Wed 10:51:39 AM 41.0167 -74.5853 325° Northwest 347 399 13,200 1,322 Climbing New York Center
Wed 10:52:39 AM 41.0956 -74.6558 326° Northwest 338 389 14,300 1,033 Climbing New York Center
Wed 10:53:41 AM 41.1653 -74.7564 313° West 338 389 15,300 1,000 Climbing New York Center
Wed 10:54:39 AM 41.2075 -74.8581 299° West 351 404 16,300 915 Climbing New York Center
Wed 10:55:39 AM 41.2578 -74.9717 301° West 361 415 17,100 787 Climbing New York Center
Wed 10:56:41 AM 41.3136 -75.0992 300° West 361 415 17,900 836 Climbing New York Center
Wed 10:57:41 AM 41.3631 -75.2214 298° West 367 422 18,800 1,220 Climbing New York Center
Wed 10:58:39 AM 41.4092 -75.3239 301° West 367 422 20,300 1,068 Climbing New York Center
Wed 10:59:39 AM 41.4586 -75.4436 299° West 367 422 20,900 645 Climbing New York Center
Wed 11:00:40 AM 41.5014 -75.5711 294° West 367 422 21,600 738 Climbing New York Center
Wed 11:01:41 AM 41.5400 -75.7014 292° West 377 434 22,400 750 Climbing New York Center
Wed 11:02:40 AM 41.5778 -75.8400 290° West 384 442 23,100 756 Climbing New York Center
Wed 11:03:40 AM 41.6158 -75.9733 291° West 390 449 23,900 793 Climbing New York Center
Wed 11:04:41 AM 41.6533 -76.1122 290° West 395 455 24,700 787 Climbing New York Center
Wed 11:05:42 AM 41.6908 -76.2458 291° West 395 455 25,500 1,160 Climbing New York Center
Wed 11:06:40 AM 41.7306 -76.3769 292° West 395 455 27,000 1,552 Climbing New York Center
Wed 11:07:38 AM 41.7642 -76.5022 290° West 388 447 28,500 1,301 Climbing New York Center
Wed 11:09:26 AM 41.8264 -76.7233 291° West 363 418 30,600 1,143 Climbing Cleveland Center
Wed 11:10:26 AM 41.8594 -76.8442 290° West 358 412 31,700 1,100 Climbing Cleveland Center
Wed 11:11:26 AM 41.8950 -76.9761 290° West 351 404 32,800 1,100 Climbing Cleveland Center
Wed 11:12:26 AM 41.9281 -77.0969 290° West 351 404 33,900 1,100 Climbing Cleveland Center
Wed 11:13:26 AM 41.9586 -77.2156 289° West 346 398 35,000 1,050 Climbing Cleveland Center
Wed 11:14:26 AM 41.9911 -77.3339 290° West 340 391 36,000 500 Climbing Cleveland Center
Wed 11:15:26 AM 42.0239 -77.4553 290° West 340 391 36,000  Level Cleveland Center
Wed 11:16:26 AM 42.0564 -77.5794 289° West 346 398 36,000  Level Cleveland Center
Wed 11:17:26 AM 42.0908 -77.7122 289° West 356 410 36,000  Level Cleveland Center
Wed 11:18:26 AM 42.1275 -77.8450 290° West 375 432 36,000  Level Cleveland Center
Wed 11:19:26 AM 42.1619 -77.9753 290° West 375 432 36,000  Level Cleveland Center
Wed 11:20:26 AM 42.1917 -78.1000 288° West 370 426 36,000  Level Cleveland Center
Wed 11:21:26 AM 42.2233 -78.2194 290° West 353 406 36,000  Level Cleveland Center
Wed 11:22:26 AM 42.2547 -78.3333 290° West 342 394 36,000  Level Cleveland Center
Wed 11:23:26 AM 42.2842 -78.4531 288° West 337 388 36,000  Level Cleveland Center
Wed 11:24:26 AM 42.3156 -78.5756 289° West 343 395 36,000  Level Cleveland Center
Wed 11:25:26 AM 42.3469 -78.7008 289° West 348 400 36,000  Level Cleveland Center
Wed 11:26:26 AM 42.3803 -78.8264 290° West 348 400 36,000  Level Cleveland Center
Wed 11:27:26 AM 42.4089 -78.9408 289° West 353 406 36,000  Level Cleveland Center
Wed 11:28:26 AM 42.4397 -79.0639 289° West 353 406 36,000  Level Cleveland Center
Wed 11:29:26 AM 42.4750 -79.2067 289° West 358 412 36,000  Level Cleveland Center
Wed 11:30:26 AM 42.4953 -79.3358 282° West 358 412 36,000  Level Cleveland Center
Wed 11:32:26 AM 42.5061 -79.5947 273° West 347 399 36,000  Level Cleveland Center
Wed 11:33:26 AM 42.5153 -79.7183 276° West 347 399 36,000  Level Cleveland Center
Wed 11:34:26 AM 42.5225 -79.8422 275° West 342 394 36,000  Level Cleveland Center
Wed 11:35:26 AM 42.5272 -79.9606 273° West 332 382 36,000  Level Cleveland Center
Wed 11:36:26 AM 42.5278 -80.0761 270° West 327 376 36,000  Level Cleveland Center
Wed 11:37:26 AM 42.5347 -80.1972 274° West 327 376 36,000  Level Cleveland Center
Wed 11:38:26 AM 42.5392 -80.3211 273° West 327 376 36,000  Level Cleveland Center
Wed 11:39:26 AM 42.5436 -80.4422 273° West 327 376 36,000  Level Cleveland Center
Wed 11:40:26 AM 42.5497 -80.5692 274° West 327 376 36,000  Level Cleveland Center
Wed 11:41:26 AM 42.5539 -80.7072 272° West 332 382 36,000  Level Cleveland Center
Wed 11:42:26 AM 42.5600 -80.8311 274° West 332 382 36,000  Level Cleveland Center
Wed 11:43:26 AM 42.5639 -80.9581 272° West 336 387 36,000  Level Cleveland Center
Wed 11:44:26 AM 42.5675 -81.0850 272° West 341 392 36,000  Level Cleveland Center
Wed 11:45:26 AM 42.5711 -81.2147 272° West 341 392 36,000  Level Cleveland Center
Wed 11:46:26 AM 42.5786 -81.3417 275° West 341 392 36,000  Level Cleveland Center
Wed 11:47:26 AM 42.5839 -81.4686 273° West 347 399 36,000  Level Cleveland Center
Wed 11:48:26 AM 42.6078 -81.5986 284° West 352 405 36,000  Level Cleveland Center
Wed 11:49:26 AM 42.6317 -81.7261 284° West 353 406 36,000  Level Cleveland Center
Wed 11:50:26 AM 42.6492 -81.8450 281° West 353 406 36,000  Level Cleveland Center
Wed 11:51:26 AM 42.6706 -81.9753 283° West 358 412 36,000  Level Cleveland Center
Wed 11:52:26 AM 42.6961 -82.1058 285° West 358 412 36,000  Level Cleveland Center
Wed 11:53:26 AM 42.7192 -82.2392 283° West 358 412 36,000  Level Cleveland Center
Wed 11:54:26 AM 42.7422 -82.3728 283° West 358 412 36,000  Level Cleveland Center
Wed 11:55:26 AM 42.7631 -82.5061 282° West 358 412 36,000  Level Cleveland Center
Wed 11:56:26 AM 42.7878 -82.6400 284° West 358 412 36,000  Level Cleveland Center
Wed 11:57:26 AM 42.8083 -82.7736 282° West 358 412 36,000  Level Cleveland Center
Wed 11:58:26 AM 42.8308 -82.9047 283° West 358 412 36,000  Level Cleveland Center
Wed 11:59:26 AM 42.8531 -83.0386 283° West 358 412 36,000  Level Cleveland Center
Wed 12:00:26 PM 42.8728 -83.1756 281° West 358 412 36,000  Level Cleveland Center
Wed 12:01:26 PM 42.8950 -83.3039 283° West 358 412 36,000  Level Cleveland Center
Wed 12:02:26 PM 42.9167 -83.4381 282° West 358 412 36,000  Level Cleveland Center
Wed 12:03:26 PM 42.9361 -83.5722 281° West 358 412 36,000  Level Cleveland Center
Wed 12:04:26 PM 42.9597 -83.7069 284° West 358 412 36,000  Level Cleveland Center
Wed 12:05:26 PM 42.9728 -83.8353 278° West 358 412 36,000  Level Cleveland Center
Wed 12:06:26 PM 42.9858 -83.9692 278° West 358 412 36,000  Level Cleveland Center
Wed 12:07:26 PM 42.9983 -84.1061 277° West 353 406 36,000  Level Cleveland Center
Wed 12:08:26 PM 43.0125 -84.2547 277° West 361 415 36,000  Level Cleveland Center
Wed 12:09:26 PM 43.0253 -84.3719 279° West 354 407 36,000  Level Cleveland Center
Wed 12:10:04 PM 43.0344 -84.4544 279° West 362 417 36,000  Level Chicago Center
Wed 12:11:06 PM 43.0467 -84.5894 277° West 362 417 36,000  Level Chicago Center
Wed 12:12:08 PM 43.0611 -84.7522 277° West 361 415 36,000  Level Chicago Center
Wed 12:13:10 PM 43.0722 -84.8869 276° West 358 412 36,000  Level Chicago Center
Wed 12:14:12 PM 43.0850 -85.0192 278° West 353 406 36,000 -290 Level Chicago Center
Wed 12:15:14 PM 43.0961 -85.1522 277° West 352 405 35,400 -871 Descending Chicago Center
Wed 12:16:16 PM 43.1078 -85.2853 277° West 353 406 34,200 -1,306 Descending Chicago Center
Wed 12:17:18 PM 43.1197 -85.4258 277° West 369 425 32,700 -1,584 Descending Chicago Center
Wed 12:18:21 PM 43.1342 -85.5989 277° West 384 442 30,900 -1,584 Descending Chicago Center
Wed 12:19:23 PM 43.1453 -85.7378 276° West 373 429 29,400 -1,403 Descending Chicago Center
Wed 12:20:25 PM 43.1558 -85.8739 276° West 367 422 28,000 -1,403 Descending Chicago Center
Wed 12:21:27 PM 43.1672 -86.0147 276° West 380 437 26,500 -1,597 Descending Chicago Center
Wed 12:22:29 PM 43.1672 -86.1881 270° West 389 448 24,700 -1,645 Descending Chicago Center
Wed 12:23:31 PM 43.1656 -86.3353 269° West 388 447 23,100 -1,742 Descending Chicago Center
Wed 12:24:33 PM 43.1628 -86.4831 269° West 390 449 21,100 -1,935 Descending Chicago Center
Wed 12:25:35 PM 43.1606 -86.6292 269° West 387 445 19,100 -1,887 Descending Chicago Center
Wed 12:26:37 PM 43.1569 -86.7711 268° West 370 426 17,200 -2,081 Descending Chicago Center
Wed 12:27:39 PM 43.1544 -86.9289 269° West 348 400 14,800 -1,694 Descending Chicago Center
Wed 12:28:41 PM 43.1514 -87.0611 268° West 347 399 13,700 -1,161 Descending Chicago Center
Wed 12:29:43 PM 43.1481 -87.1939 268° West 351 404 12,400 -1,210 Descending Chicago Center
Wed 12:30:45 PM 43.1444 -87.3269 268° West 351 404 11,200 -1,161 Descending Chicago Center
Wed 12:31:47 PM 43.1375 -87.4725 266° West 346 398 10,000 -823 Descending Chicago Center
Wed 12:32:49 PM 43.1122 -87.5800 252° West 295 339 9,500 -1,008 Descending Chicago Center
Wed 12:33:52 PM 43.0900 -87.6744 252° West 265 305 7,900 -1,200 Descending Chicago Center
Wed 12:34:54 PM 43.0647 -87.7664 249° West 258 297 7,000 -435 Descending Chicago Center
Wed 12:35:56 PM 42.9775 -87.7936 193° South 284 327 7,000 -677 Level Chicago Center
Wed 12:36:58 PM 42.8994 -87.8003 184° South 281 323 5,600 -1,452 Descending Chicago Center
Wed 12:38:00 PM 42.8294 -87.8089 185° South 264 304 4,000 -1,258 Descending Chicago Center
Wed 12:39:02 PM 42.8133 -87.8756 252° West 232 267 3,000 -968 Descending Chicago Center

Login

Don't have an account? Register now (free) for customized features, flight alerts, and more!